createdAt,value
2022-09-06T00:00:19.661Z,14.84
2022-09-06T00:02:48.768Z,14.87
2022-09-06T00:05:16.836Z,14.77
2022-09-06T00:07:44.890Z,14.73
2022-09-06T00:10:13.636Z,14.74
2022-09-06T00:12:43.091Z,14.70
2022-09-06T00:15:11.905Z,14.68
2022-09-06T00:17:39.988Z,14.71
2022-09-06T00:20:10.231Z,14.71
2022-09-06T00:22:38.697Z,14.68
2022-09-06T00:25:08.264Z,14.63
2022-09-06T00:27:36.828Z,14.62
2022-09-06T00:30:07.361Z,14.62
2022-09-06T00:32:35.401Z,14.60
2022-09-06T00:35:03.448Z,14.66
2022-09-06T00:37:31.493Z,14.64
2022-09-06T00:39:59.556Z,14.57
2022-09-06T00:42:27.618Z,14.57
2022-09-06T00:44:55.828Z,14.52
2022-09-06T00:47:27.215Z,14.53
2022-09-06T00:49:59.318Z,14.49
2022-09-06T00:52:28.858Z,14.53
2022-09-06T00:54:57.357Z,14.51
2022-09-06T00:57:27.136Z,14.57
2022-09-06T00:59:57.134Z,14.51
2022-09-06T01:02:26.823Z,14.53
2022-09-06T01:04:55.913Z,14.54
2022-09-06T01:07:46.323Z,14.54
2022-09-06T01:10:31.718Z,14.53
2022-09-06T01:13:11.747Z,14.51
2022-09-06T01:15:48.820Z,14.51
2022-09-06T01:18:40.924Z,14.45
2022-09-06T01:21:19.926Z,14.47
2022-09-06T01:24:12.999Z,14.39
2022-09-06T01:27:15.850Z,14.41
2022-09-06T01:29:51.230Z,14.47
2022-09-06T01:32:25.669Z,14.41
2022-09-06T01:34:57.821Z,14.45
2022-09-06T01:37:26.316Z,14.45
2022-09-06T01:39:54.363Z,14.44
2022-09-06T01:42:27.333Z,14.42
2022-09-06T01:45:00.998Z,14.39
2022-09-06T01:47:39.763Z,14.46
2022-09-06T01:50:34.406Z,14.40
2022-09-06T01:53:13.485Z,14.38
2022-09-06T01:55:49.849Z,14.34
2022-09-06T01:58:39.503Z,14.38
2022-09-06T02:01:17.285Z,14.33
2022-09-06T02:03:53.865Z,14.34
2022-09-06T02:06:25.382Z,14.33
2022-09-06T02:08:58.233Z,14.30
2022-09-06T02:11:29.427Z,14.26
2022-09-06T02:14:06.061Z,14.28
2022-09-06T02:16:39.371Z,14.28
2022-09-06T02:19:13.082Z,14.31
2022-09-06T02:21:45.297Z,14.28
2022-09-06T02:24:19.449Z,14.25
2022-09-06T02:26:48.424Z,14.29
2022-09-06T02:29:17.834Z,14.26
2022-09-06T02:31:52.082Z,14.20
2022-09-06T02:34:21.128Z,14.20
2022-09-06T02:36:49.533Z,14.18
2022-09-06T02:39:17.641Z,14.25
2022-09-06T02:41:48.089Z,14.24
2022-09-06T02:44:16.710Z,14.23
2022-09-06T02:46:45.137Z,14.23
2022-09-06T02:49:14.550Z,14.15
2022-09-06T02:51:42.673Z,14.15
2022-09-06T02:54:10.724Z,14.16
2022-09-06T02:56:38.776Z,14.17
2022-09-06T02:59:06.820Z,14.17
2022-09-06T03:01:35.278Z,14.12
2022-09-06T03:04:03.968Z,14.14
2022-09-06T03:06:33.694Z,14.17
2022-09-06T03:09:01.930Z,14.17
2022-09-06T03:11:30.014Z,14.17
2022-09-06T03:13:58.068Z,14.14
2022-09-06T03:16:26.312Z,14.17
2022-09-06T03:18:54.384Z,14.14
2022-09-06T03:21:22.429Z,14.14
2022-09-06T03:23:52.430Z,14.13
2022-09-06T03:26:20.474Z,14.11
2022-09-06T03:28:48.508Z,14.08
2022-09-06T03:31:16.624Z,14.10
2022-09-06T03:33:44.725Z,14.10
2022-09-06T03:36:12.893Z,14.05
2022-09-06T03:38:40.938Z,14.11
2022-09-06T03:41:10.413Z,14.14
2022-09-06T03:43:38.511Z,14.13
2022-09-06T03:46:07.024Z,14.07
2022-09-06T03:48:35.166Z,14.09
2022-09-06T03:51:03.200Z,14.13
2022-09-06T03:53:31.307Z,14.10
2022-09-06T03:55:59.771Z,14.14
2022-09-06T03:58:32.805Z,14.11
2022-09-06T04:01:05.942Z,14.06
2022-09-06T04:03:35.049Z,14.07
2022-09-06T04:06:03.599Z,14.07
2022-09-06T04:08:31.904Z,13.96
2022-09-06T04:11:00.630Z,14.01
2022-09-06T04:13:31.466Z,14.02
2022-09-06T04:15:59.988Z,14.03
2022-09-06T04:18:28.660Z,14.04
2022-09-06T04:20:57.935Z,14.01
2022-09-06T04:23:27.684Z,13.98
2022-09-06T04:25:59.118Z,13.94
2022-09-06T04:28:27.978Z,13.89
2022-09-06T04:31:04.072Z,13.89
2022-09-06T04:33:33.768Z,13.94
2022-09-06T04:36:03.772Z,13.93
2022-09-06T04:38:35.427Z,13.90
2022-09-06T04:41:03.454Z,13.84
2022-09-06T04:43:31.554Z,13.84
2022-09-06T04:46:06.316Z,13.82
2022-09-06T04:48:34.473Z,13.79
2022-09-06T04:51:02.514Z,13.80
2022-09-06T04:53:30.589Z,13.88
2022-09-06T04:55:59.445Z,13.95
2022-09-06T04:58:27.532Z,14.02
2022-09-06T05:00:55.886Z,14.05
2022-09-06T05:03:25.448Z,14.04
2022-09-06T05:05:53.465Z,14.10
2022-09-06T05:08:21.582Z,14.11
2022-09-06T05:10:52.508Z,14.05
2022-09-06T05:13:20.591Z,14.10
2022-09-06T05:15:48.658Z,14.13
2022-09-06T05:18:16.736Z,14.15
2022-09-06T05:20:52.908Z,14.23
2022-09-06T05:23:21.201Z,14.31
2022-09-06T05:25:49.705Z,14.31
2022-09-06T05:28:18.386Z,14.24
2022-09-06T05:30:46.703Z,14.26
2022-09-06T05:33:20.068Z,14.20
2022-09-06T05:35:50.078Z,14.20
2022-09-06T05:38:18.390Z,14.25
2022-09-06T05:40:46.429Z,14.19
2022-09-06T05:43:14.448Z,14.20
2022-09-06T05:45:42.574Z,14.27
2022-09-06T05:48:10.650Z,14.29
2022-09-06T05:50:38.741Z,14.28
2022-09-06T05:53:08.162Z,14.36
2022-09-06T05:55:39.057Z,14.53
2022-09-06T05:58:09.220Z,14.72
2022-09-06T06:00:37.603Z,14.77
2022-09-06T06:03:05.685Z,14.95
2022-09-06T06:05:33.764Z,15.02
2022-09-06T06:08:01.873Z,15.19
2022-09-06T06:10:34.322Z,15.20
2022-09-06T06:13:04.805Z,15.11
2022-09-06T06:15:33.412Z,15.09
2022-09-06T06:18:01.452Z,15.15
2022-09-06T06:20:29.605Z,15.11
2022-09-06T06:22:57.961Z,15.09
2022-09-06T06:25:26.316Z,15.07
2022-09-06T06:27:55.775Z,15.09
2022-09-06T06:30:23.840Z,15.07
2022-09-06T06:32:51.861Z,15.18
2022-09-06T06:35:19.937Z,15.27
2022-09-06T06:37:47.953Z,15.37
2022-09-06T06:40:16.130Z,15.34
2022-09-06T06:42:44.199Z,15.35
2022-09-06T06:45:13.755Z,15.41
2022-09-06T06:47:41.810Z,15.43
2022-09-06T06:50:10.731Z,15.41
2022-09-06T06:52:39.492Z,15.39
2022-09-06T06:55:07.960Z,15.44
2022-09-06T06:57:36.037Z,15.47
2022-09-06T07:00:05.515Z,15.50
2022-09-06T07:02:35.086Z,15.61
2022-09-06T07:07:51.614Z,15.83
2022-09-06T07:10:35.609Z,15.82
2022-09-06T07:13:04.340Z,15.89
2022-09-06T07:15:32.378Z,15.97
2022-09-06T07:18:02.195Z,16.03
2022-09-06T07:20:30.963Z,16.04
2022-09-06T07:25:48.397Z,16.28
2022-09-06T07:28:16.432Z,16.35
2022-09-06T07:30:44.547Z,16.34
2022-09-06T07:33:13.962Z,16.43
2022-09-06T07:35:41.972Z,16.41
2022-09-06T07:38:10.009Z,16.31
2022-09-06T07:40:38.058Z,16.35
2022-09-06T07:43:06.086Z,16.40
2022-09-06T07:45:35.642Z,16.41
2022-09-06T07:48:03.992Z,16.32
2022-09-06T07:50:49.773Z,16.42
2022-09-06T07:53:27.692Z,16.48
2022-09-06T07:55:58.660Z,16.48
2022-09-06T07:58:26.747Z,16.43
2022-09-06T08:00:54.908Z,16.50
2022-09-06T08:03:23.195Z,16.57
2022-09-06T08:11:26.124Z,16.42
2022-09-06T08:13:55.898Z,16.53
2022-09-06T08:16:25.437Z,16.45
2022-09-06T08:18:54.677Z,16.47
2022-09-06T08:21:25.445Z,16.44
2022-09-06T08:23:55.414Z,16.64
2022-09-06T08:26:25.053Z,16.67
2022-09-06T08:28:58.096Z,16.75
2022-09-06T08:31:26.168Z,16.74
2022-09-06T08:33:54.949Z,16.72
2022-09-06T08:36:27.167Z,16.64
2022-09-06T08:38:55.330Z,16.64
2022-09-06T08:41:27.411Z,16.77
2022-09-06T08:46:53.796Z,16.82
2022-09-06T08:49:22.465Z,16.97
2022-09-06T08:52:08.592Z,16.94
2022-09-06T08:54:41.196Z,16.98
2022-09-06T08:57:14.680Z,16.92
2022-09-06T08:59:44.040Z,16.78
2022-09-06T09:02:14.619Z,16.84
2022-09-06T09:04:46.747Z,16.83
2022-09-06T09:07:41.269Z,16.77
2022-09-06T09:10:14.879Z,16.65
2022-09-06T09:12:48.388Z,16.70
2022-09-06T09:15:19.758Z,16.73
2022-09-06T09:17:50.286Z,16.76
2022-09-06T09:20:18.832Z,16.93
2022-09-06T09:22:48.862Z,17.04
2022-09-06T09:25:22.436Z,17.01
2022-09-06T09:27:57.526Z,16.96
2022-09-06T09:33:23.735Z,17.26
2022-09-06T09:35:52.814Z,17.37
2022-09-06T09:38:25.172Z,17.45
2022-09-06T09:40:55.096Z,17.48
2022-09-06T09:43:25.610Z,17.52
2022-09-06T09:46:16.119Z,17.42
2022-09-06T09:49:00.878Z,17.43
2022-09-06T09:51:30.877Z,17.54
2022-09-06T09:54:01.876Z,17.62
2022-09-06T09:56:37.927Z,17.60
2022-09-06T09:59:16.708Z,17.49
2022-09-06T10:01:45.424Z,17.63
2022-09-06T10:07:13.807Z,17.65
2022-09-06T10:09:44.631Z,17.65
2022-09-06T10:12:18.431Z,17.74
2022-09-06T10:14:48.589Z,17.74
2022-09-06T10:17:22.385Z,17.74
2022-09-06T10:19:50.486Z,17.77
2022-09-06T10:22:27.201Z,17.81
2022-09-06T10:25:22.801Z,17.92
2022-09-06T10:28:11.288Z,17.93
2022-09-06T10:30:48.860Z,18.01
2022-09-06T10:33:30.932Z,18.15
2022-09-06T10:36:02.781Z,18.18
2022-09-06T10:38:42.690Z,18.17
2022-09-06T10:41:33.156Z,18.21
2022-09-06T10:44:13.693Z,18.24
2022-09-06T10:46:46.155Z,18.32
2022-09-06T10:49:19.449Z,18.28
2022-09-06T10:51:51.352Z,18.34
2022-09-06T10:54:23.202Z,18.26
2022-09-06T10:56:56.878Z,18.26
2022-09-06T10:59:38.070Z,18.18
2022-09-06T11:02:17.886Z,18.27
2022-09-06T11:07:41.460Z,18.39
2022-09-06T11:10:17.515Z,18.47
2022-09-06T11:12:50.734Z,18.32
2022-09-06T11:15:20.802Z,18.34
2022-09-06T11:17:55.836Z,18.32
2022-09-06T11:20:31.976Z,18.42
2022-09-06T11:23:20.036Z,18.35
2022-09-06T11:26:14.682Z,18.44
2022-09-06T11:28:47.410Z,18.42
2022-09-06T11:34:20.068Z,18.46
2022-09-06T11:36:49.382Z,18.60
2022-09-06T11:42:41.759Z,18.60
2022-09-06T11:45:21.587Z,18.53
2022-09-06T11:47:50.746Z,18.63
2022-09-06T11:51:02.158Z,18.60
2022-09-06T11:53:32.874Z,18.61
2022-09-06T11:56:26.956Z,18.62
2022-09-06T11:58:58.713Z,18.66
2022-09-06T12:01:38.593Z,18.60
2022-09-06T12:04:09.979Z,18.70
2022-09-06T12:06:41.261Z,18.71
2022-09-06T12:09:33.230Z,18.65
2022-09-06T12:12:02.210Z,18.68
2022-09-06T12:14:40.708Z,18.67
2022-09-06T12:17:28.460Z,18.66
2022-09-06T12:20:07.018Z,18.69
2022-09-06T12:23:02.091Z,18.55
2022-09-06T12:25:58.681Z,18.66
2022-09-06T12:28:36.190Z,18.64
2022-09-06T12:31:24.409Z,18.67
2022-09-06T12:33:54.798Z,18.71
2022-09-06T12:36:29.761Z,18.78
2022-09-06T12:39:00.287Z,18.83
2022-09-06T12:41:30.646Z,18.87
2022-09-06T12:44:00.880Z,18.88
2022-09-06T12:46:31.446Z,18.79
2022-09-06T12:49:07.154Z,18.78
2022-09-06T12:51:35.845Z,18.88
2022-09-06T12:54:06.228Z,18.89
2022-09-06T12:56:35.304Z,18.85
2022-09-06T12:59:14.343Z,18.79
2022-09-06T13:01:45.774Z,18.81
2022-09-06T13:04:24.187Z,18.83
2022-09-06T13:06:52.603Z,18.74
2022-09-06T13:09:23.704Z,18.74
2022-09-06T13:11:53.957Z,18.82
2022-09-06T13:14:26.673Z,18.74
2022-09-06T13:16:57.167Z,18.71
2022-09-06T13:19:35.782Z,18.55
2022-09-06T13:22:07.469Z,18.72
2022-09-06T13:24:47.916Z,18.77
2022-09-06T13:27:28.151Z,18.67
2022-09-06T13:29:58.152Z,18.63
2022-09-06T13:32:28.030Z,18.66
2022-09-06T13:34:59.982Z,18.65
2022-09-06T13:37:29.928Z,18.68
2022-09-06T13:39:58.736Z,18.60
2022-09-06T13:42:30.035Z,18.66
2022-09-06T13:45:02.206Z,18.77
2022-09-06T13:47:31.174Z,18.63
2022-09-06T13:50:00.569Z,18.60
2022-09-06T13:52:29.282Z,18.56
2022-09-06T13:54:57.318Z,18.51
2022-09-06T13:57:25.347Z,18.57
2022-09-06T13:59:53.362Z,18.54
2022-09-06T14:02:21.460Z,18.60
2022-09-06T14:04:49.595Z,18.47
2022-09-06T14:07:19.056Z,18.34
2022-09-06T14:09:47.758Z,18.24
2022-09-06T14:12:15.829Z,18.30
2022-09-06T14:14:44.722Z,18.09
2022-09-06T14:17:12.844Z,18.13
2022-09-06T14:19:41.392Z,18.07
2022-09-06T14:22:09.458Z,17.99
2022-09-06T14:24:39.246Z,17.99
2022-09-06T14:27:08.576Z,17.96
2022-09-06T14:29:36.786Z,17.96
2022-09-06T14:32:05.066Z,17.90
2022-09-06T14:34:33.062Z,17.85
2022-09-06T14:37:01.076Z,17.90
2022-09-06T14:39:29.150Z,17.82
2022-09-06T14:41:58.692Z,17.86
2022-09-06T14:44:27.049Z,17.81
2022-09-06T14:46:55.124Z,17.83
2022-09-06T14:49:23.963Z,17.78
2022-09-06T14:51:53.629Z,17.74
2022-09-06T14:54:24.147Z,17.75
2022-09-06T14:56:55.478Z,17.82
2022-09-06T14:59:24.990Z,17.79
2022-09-06T15:01:53.197Z,17.78
2022-09-06T15:04:21.985Z,17.87
2022-09-06T15:06:50.073Z,17.81
2022-09-06T15:09:19.544Z,17.75
2022-09-06T15:11:49.250Z,17.89
2022-09-06T15:14:19.272Z,17.90
2022-09-06T15:16:55.293Z,17.89
2022-09-06T15:19:24.779Z,17.82
2022-09-06T15:21:52.968Z,17.97
2022-09-06T15:24:21.845Z,17.92
2022-09-06T15:26:50.421Z,17.92
2022-09-06T15:29:19.171Z,17.92
2022-09-06T15:31:50.431Z,17.94
2022-09-06T15:34:19.532Z,17.98
2022-09-06T15:36:47.651Z,18.02
2022-09-06T15:39:15.997Z,18.04
2022-09-06T15:41:44.523Z,18.04
2022-09-06T15:44:14.757Z,18.05
2022-09-06T15:46:51.109Z,18.02
2022-09-06T15:49:26.980Z,18.01
2022-09-06T15:51:56.903Z,18.00
2022-09-06T15:54:45.142Z,18.01
2022-09-06T15:57:13.850Z,18.04
2022-09-06T15:59:42.001Z,18.01
2022-09-06T16:02:11.823Z,17.98
2022-09-06T16:04:40.689Z,17.94
2022-09-06T16:07:09.693Z,17.93
2022-09-06T16:09:37.816Z,17.95
2022-09-06T16:12:06.322Z,17.95
2022-09-06T16:14:34.868Z,18.01
2022-09-06T16:17:03.020Z,18.15
2022-09-06T16:19:32.608Z,18.13
2022-09-06T16:22:00.954Z,18.47
2022-09-06T16:24:29.115Z,18.88
2022-09-06T16:26:57.235Z,19.12
2022-09-06T16:29:25.390Z,19.68
2022-09-06T16:31:59.485Z,20.59
2022-09-06T16:34:27.948Z,21.31
2022-09-06T16:36:57.531Z,21.30
2022-09-06T16:39:25.686Z,21.38
2022-09-06T16:41:53.813Z,21.51
2022-09-06T16:44:21.893Z,21.40
2022-09-06T16:46:54.248Z,21.08
2022-09-06T16:49:22.759Z,20.73
2022-09-06T16:51:52.231Z,20.28
2022-09-06T16:54:22.137Z,20.15
2022-09-06T16:56:50.272Z,19.65
2022-09-06T16:59:18.607Z,19.41
2022-09-06T17:01:47.381Z,19.20
2022-09-06T17:04:16.181Z,19.01
2022-09-06T17:06:45.750Z,18.71
2022-09-06T17:09:15.855Z,18.65
2022-09-06T17:11:45.340Z,18.62
2022-09-06T17:14:13.703Z,18.64
2022-09-06T17:16:59.102Z,18.62
2022-09-06T17:19:27.554Z,18.41
2022-09-06T17:21:55.693Z,18.44
2022-09-06T17:24:24.035Z,18.36
2022-09-06T17:26:53.689Z,18.28
2022-09-06T17:29:21.952Z,18.31
2022-09-06T17:31:50.073Z,18.20
2022-09-06T17:34:18.162Z,18.17
2022-09-06T17:36:46.374Z,18.06
2022-09-06T17:39:17.603Z,18.01
2022-09-06T17:41:46.907Z,17.95
2022-09-06T17:44:19.038Z,17.82
2022-09-06T17:47:09.150Z,17.73
2022-09-06T17:49:36.790Z,17.56
2022-09-06T17:52:05.054Z,17.57
2022-09-06T17:54:33.414Z,17.49
2022-09-06T17:57:01.499Z,17.43
2022-09-06T17:59:35.017Z,17.38
2022-09-06T18:02:04.156Z,17.28
2022-09-06T18:04:32.299Z,17.19
2022-09-06T18:07:00.444Z,17.13
2022-09-06T18:09:29.022Z,17.06
2022-09-06T18:11:58.303Z,16.99
2022-09-06T18:14:28.600Z,16.95
2022-09-06T18:16:58.215Z,16.91
2022-09-06T18:19:27.499Z,16.86
2022-09-06T18:21:57.251Z,16.84
2022-09-06T18:24:25.582Z,16.86
2022-09-06T18:26:53.743Z,16.83
2022-09-06T18:29:22.203Z,16.79
2022-09-06T18:31:53.417Z,16.75
2022-09-06T18:34:23.196Z,16.72
2022-09-06T18:36:51.364Z,16.73
2022-09-06T18:39:20.416Z,16.69
2022-09-06T18:42:00.882Z,16.63
2022-09-06T18:44:32.253Z,16.49
2022-09-06T18:47:02.226Z,16.50
2022-09-06T18:49:32.521Z,16.52
2022-09-06T18:52:01.560Z,16.50
2022-09-06T18:54:30.550Z,16.42
2022-09-06T18:56:59.224Z,16.35
2022-09-06T18:59:28.188Z,16.30
2022-09-06T19:01:56.683Z,16.28
2022-09-06T19:04:25.001Z,16.27
2022-09-06T19:06:54.578Z,16.19
2022-09-06T19:09:23.119Z,16.16
2022-09-06T19:11:52.730Z,16.14
2022-09-06T19:14:21.650Z,16.07
2022-09-06T19:16:50.821Z,16.10
2022-09-06T19:19:18.998Z,16.13
2022-09-06T19:21:47.094Z,16.06
2022-09-06T19:24:16.689Z,15.98
2022-09-06T19:26:45.471Z,15.94
2022-09-06T19:29:15.765Z,15.84
2022-09-06T19:31:44.460Z,15.87
2022-09-06T19:34:15.242Z,15.89
2022-09-06T19:36:44.488Z,15.89
2022-09-06T19:39:15.387Z,15.86
2022-09-06T19:41:46.988Z,15.88
2022-09-06T19:44:16.028Z,15.83
2022-09-06T19:46:46.779Z,16.00
2022-09-06T19:49:19.149Z,15.99
2022-09-06T19:51:48.918Z,16.01
2022-09-06T19:54:17.841Z,16.04
2022-09-06T19:56:48.059Z,16.06
2022-09-06T19:59:17.706Z,16.06
2022-09-06T20:01:47.660Z,15.98
2022-09-06T20:04:16.603Z,15.95
2022-09-06T20:06:46.959Z,15.94
2022-09-06T20:09:16.525Z,15.93
2022-09-06T20:11:44.825Z,15.91
2022-09-06T20:14:14.612Z,15.85
2022-09-06T20:16:43.072Z,15.82
2022-09-06T20:19:13.078Z,15.77
2022-09-06T20:21:41.363Z,15.77
2022-09-06T20:24:09.972Z,15.77
2022-09-06T20:26:38.107Z,15.70
2022-09-06T20:29:06.743Z,15.72
2022-09-06T20:31:37.589Z,15.71
2022-09-06T20:34:07.067Z,15.69
2022-09-06T20:36:35.204Z,15.65
2022-09-06T20:39:03.407Z,15.67
2022-09-06T20:41:32.281Z,15.61
2022-09-06T20:44:01.327Z,15.61
2022-09-06T20:46:31.075Z,15.55
2022-09-06T20:49:04.733Z,15.46
2022-09-06T20:51:34.439Z,15.43
2022-09-06T20:54:03.785Z,15.38
2022-09-06T20:56:34.392Z,15.36
2022-09-06T20:59:04.540Z,15.32
2022-09-06T21:01:35.075Z,15.33
2022-09-06T21:04:07.007Z,15.31
2022-09-06T21:06:37.278Z,15.25
2022-09-06T21:09:07.493Z,15.27
2022-09-06T21:11:35.991Z,15.23
2022-09-06T21:14:04.196Z,15.20
2022-09-06T21:16:33.041Z,15.18
2022-09-06T21:19:05.237Z,15.17
2022-09-06T21:21:35.174Z,15.18
2022-09-06T21:24:04.758Z,15.14
2022-09-06T21:26:33.087Z,15.11
2022-09-06T21:29:01.385Z,15.09
2022-09-06T21:31:31.121Z,15.06
2022-09-06T21:34:02.020Z,15.07
2022-09-06T21:36:33.870Z,15.06
2022-09-06T21:39:03.611Z,15.05
2022-09-06T21:41:34.386Z,15.02
2022-09-06T21:44:03.972Z,14.96
2022-09-06T21:46:34.516Z,14.95
2022-09-06T21:49:04.709Z,14.81
2022-09-06T21:51:34.766Z,14.92
2022-09-06T21:54:04.390Z,14.89
2022-09-06T21:56:33.903Z,14.89
2022-09-06T21:59:02.130Z,14.89
2022-09-06T22:01:32.957Z,14.87
2022-09-06T22:04:02.374Z,14.93
2022-09-06T22:06:32.360Z,14.96
2022-09-06T22:09:04.259Z,14.96
2022-09-06T22:11:34.231Z,14.99
2022-09-06T22:14:03.973Z,14.96
2022-09-06T22:16:33.879Z,14.97
2022-09-06T22:19:03.600Z,14.98
2022-09-06T22:21:32.902Z,14.99
2022-09-06T22:24:06.880Z,14.99
2022-09-06T22:26:36.824Z,14.98
2022-09-06T22:29:07.361Z,14.96
2022-09-06T22:31:36.568Z,14.98
2022-09-06T22:34:05.273Z,15.00
2022-09-06T22:36:33.947Z,14.98
2022-09-06T22:39:03.447Z,14.96
2022-09-06T22:41:33.135Z,14.93
2022-09-06T22:44:01.646Z,14.87
2022-09-06T22:46:30.961Z,14.86
2022-09-06T22:48:59.638Z,14.80
2022-09-06T22:51:27.733Z,14.75
2022-09-06T22:53:55.843Z,14.75
2022-09-06T22:56:25.537Z,14.69
2022-09-06T22:58:53.747Z,14.67
2022-09-06T23:01:21.943Z,14.61
2022-09-06T23:03:50.714Z,14.59
2022-09-06T23:06:19.320Z,14.53
2022-09-06T23:08:47.442Z,14.53
2022-09-06T23:11:17.852Z,14.50
2022-09-06T23:13:47.317Z,14.50
2022-09-06T23:16:18.488Z,14.50
2022-09-06T23:18:47.538Z,14.48
2022-09-06T23:21:18.015Z,14.47
2022-09-06T23:23:47.045Z,14.50
2022-09-06T23:26:17.305Z,14.44
2022-09-06T23:28:47.071Z,14.41
2022-09-06T23:31:16.786Z,14.44
2022-09-06T23:33:44.979Z,14.40
2022-09-06T23:36:14.734Z,14.35
2022-09-06T23:38:44.185Z,14.33
2022-09-06T23:41:13.314Z,14.32
2022-09-06T23:43:43.453Z,14.27
2022-09-06T23:46:14.780Z,14.27
2022-09-06T23:48:43.350Z,14.23
2022-09-06T23:54:58.134Z,14.15
2022-09-06T23:57:26.255Z,14.12
2022-09-06T23:59:54.449Z,14.13
